Venango Regional Airport
KFKL : rendu visible

Aérodrome :











RETROUVEZ-NOUS SUR...

 
LOGIN :

S'inscrire | Disclaimer

   EN    FR    IT 

 









Légende :    VFR   VFR Marginal   IFR   IFR Intensif   IFR Très Intensif
Visi : 
Plafond : 
>= 8 km
>= 3000ft
5 à 8 km
1000 à 3000 ft
1500m à 5 km
500 à 1000 ft
800 à 1500m
200 à 500 ft
< 800m
< 200 ft
Symboles :   Orages  Brouillard  Fortes neiges  Fortes précipitations  Vent > 20 kt






- Altitude de l'aérodrome : 1540 ft


KFKL - Venango Regional

DERNIER METAR :
  • 311656Z AUTO 31007KT 270V360 10SM SCT041 12/03 A3025 RMK AO2 SLP249 T01220028

METARs EXPIRÉS :
  • 311556Z AUTO 31008KT 290V360 10SM BKN036 11/02 A3026 RMK AO2 SLP251 T01110022
  • 311456Z AUTO 30006KT 10SM OVC034 10/03 A3027 RMK AO2 SLP254 T01000028 51012

TAF KFKL
Valide du 31 à 12h jusqu'au 01 à 12h UTC


311127Z 3112/0112 32003KT P6SM BKN050
FM311500 33012KT P6SM SCT035
FM010000 29003KT P6SM SKC
FIR KZOB / Amérique du Nord



MET'MAP, la Météo Aéronautique d'un coup d'oeil ! - Copyright ORBIFLY Décembre 2007 - Disclaimer

ORBIFLY MET'MAP TEAM :

Programmation & Développement : Alexandra Zaïnal
Sur une idée originale de : Baudouin d'Aumeries
Assistance à la programmation : Marc-Olivier Méhu
Soutien technique & logistique : Manuel Goepfert

Contact : metmap@orbifly.com




SOURCES & CREDITS :

   NOAA       Earth
Advisory